Time;durP1;ratioP1;P1;durP2;ratioP2;P2;SDS_P1;SDS_P2;PMS_P1;PMS_P2;Temp;Humidity;BMP_temperature;BMP_pressure;BME280_temperature;BME280_humidity;BME280_pressure;Samples;Min_cycle;Max_cycle;Signal;HPM_P1;HPM_P2
2021/11/25 00:00:59;;;;;;;16.50;10.40;;;;;;;-0.56;100.00;101234.84;2091381;28;20035;-69
2021/11/25 00:01:59;;;;;;;16.63;10.50;;;;;;;-0.57;100.00;101235.69;2091391;28;20135;-69
2021/11/25 00:03:00;;;;;;;16.77;10.93;;;;;;;-0.56;100.00;101231.41;2091313;28;20098;-70
2021/11/25 00:04:01;;;;;;;17.13;10.95;;;;;;;-0.54;100.00;101228.00;2090614;28;20039;-69
2021/11/25 00:05:01;;;;;;;18.33;12.63;;;;;;;-0.53;100.00;101231.44;2090748;28;20103;-68
2021/11/25 00:06:01;;;;;;;17.23;10.40;;;;;;;-0.56;100.00;101234.84;2090564;28;20036;-69
2021/11/25 00:07:03;;;;;;;15.10;10.00;;;;;;;-0.61;100.00;101228.81;2090765;28;20033;-69
2021/11/25 00:08:03;;;;;;;18.92;10.48;;;;;;;-0.64;100.00;101226.22;2090543;28;20025;-69
2021/11/25 00:09:04;;;;;;;13.35;9.93;;;;;;;-0.65;100.00;101224.50;2082368;28;20026;-69
2021/11/25 00:10:05;;;;;;;17.20;10.47;;;;;;;-0.63;100.00;101224.50;2082347;28;20030;-69
2021/11/25 00:11:05;;;;;;;;;;;;;;;-0.64;100.00;101223.66;2091251;28;20025;-68
2021/11/25 00:12:06;;;;;;;16.05;9.93;;;;;;;-0.65;100.00;101219.38;2091270;28;19912;-70
2021/11/25 00:13:06;;;;;;;17.42;10.57;;;;;;;-0.67;100.00;101221.94;2091228;28;20082;-69
2021/11/25 00:14:07;;;;;;;15.43;9.90;;;;;;;-0.69;100.00;101215.03;2091216;28;20544;-70
2021/11/25 00:15:09;;;;;;;16.30;9.97;;;;;;;-0.70;100.00;101223.56;2091255;28;20024;-70
2021/11/25 00:16:09;;;;;;;16.02;10.48;;;;;;;-0.73;100.00;101210.72;2091267;28;20482;-70
2021/11/25 00:17:09;;;;;;;15.97;9.83;;;;;;;-0.71;100.00;101209.03;2091224;28;20025;-69
2021/11/25 00:18:09;;;;;;;19.53;12.00;;;;;;;-0.72;100.00;101204.78;2091259;28;20516;-69
2021/11/25 00:19:10;;;;;;;18.17;10.67;;;;;;;-0.71;100.00;101204.78;2090589;28;20148;-69
2021/11/25 00:20:12;;;;;;;14.00;10.33;;;;;;;-0.72;100.00;101207.34;2090595;28;20029;-68
2021/11/25 00:21:12;;;;;;;15.13;9.65;;;;;;;-0.71;100.00;101209.91;2091251;28;20029;-69
2021/11/25 00:22:13;;;;;;;15.73;9.93;;;;;;;-0.69;100.00;101207.34;2090603;28;20060;-69
2021/11/25 00:23:13;;;;;;;19.25;11.10;;;;;;;-0.71;100.00;101211.63;2090770;28;20086;-69
2021/11/25 00:24:13;;;;;;;16.27;10.20;;;;;;;-0.77;100.00;101209.84;2090506;28;20397;-69
2021/11/25 00:25:14;;;;;;;16.23;11.07;;;;;;;-0.81;100.00;101206.41;2082183;28;20119;-69
2021/11/25 00:26:16;;;;;;;15.90;10.35;;;;;;;-0.85;100.00;101202.09;2090633;28;20064;-69
2021/11/25 00:27:16;;;;;;;15.90;10.70;;;;;;;-0.88;100.00;101204.59;2091216;28;20039;-69
2021/11/25 00:28:17;;;;;;;18.40;11.47;;;;;;;-0.91;100.00;101202.00;2090228;28;20115;-69
2021/11/25 00:29:17;;;;;;;15.27;10.43;;;;;;;-0.90;100.00;101208.84;2090129;28;20475;-69
2021/11/25 00:30:17;;;;;;;16.80;9.63;;;;;;;-0.90;100.00;101203.72;2089851;28;20070;-69
2021/11/25 00:31:18;;;;;;;15.33;10.13;;;;;;;-0.91;100.00;101204.56;2081816;28;20025;-69
2021/11/25 00:32:18;;;;;;;14.07;10.10;;;;;;;-0.93;100.00;101203.69;2090015;28;20425;-70
2021/11/25 00:33:18;;;;;;;17.17;10.63;;;;;;;-0.91;100.00;101210.56;2090685;28;20021;-68
2021/11/25 00:34:19;;;;;;;18.13;10.83;;;;;;;-0.93;100.00;101208.81;2090724;28;20090;-69
2021/11/25 00:35:19;;;;;;;14.47;9.43;;;;;;;-0.97;100.00;101204.50;2090022;28;20039;-69
2021/11/25 00:36:20;;;;;;;13.40;9.90;;;;;;;-1.02;100.00;101208.72;2090049;28;20029;-68
2021/11/25 00:37:20;;;;;;;15.50;10.07;;;;;;;-1.06;100.00;101203.53;2090582;28;20118;-69
2021/11/25 00:38:20;;;;;;;16.20;10.10;;;;;;;-1.07;100.00;101200.97;2090688;28;20037;-69
2021/11/25 00:39:21;;;;;;;15.60;10.40;;;;;;;-1.08;100.00;101202.69;2090035;28;20063;-69
2021/11/25 00:40:22;;;;;;;15.60;9.43;;;;;;;-1.08;100.00;101202.69;2089960;28;20079;-69
2021/11/25 00:41:22;;;;;;;18.20;11.40;;;;;;;-1.07;100.00;101201.84;2081694;28;20025;-69
2021/11/25 00:42:23;;;;;;;16.47;10.53;;;;;;;-1.08;100.00;101202.69;2089866;28;20062;-69
2021/11/25 00:43:24;;;;;;;15.55;9.63;;;;;;;-1.12;100.00;101202.63;2089639;28;20025;-69
2021/11/25 00:44:24;;;;;;;17.67;10.73;;;;;;;-1.16;100.00;101201.72;2090548;28;20021;-69
2021/11/25 00:45:24;;;;;;;18.43;10.47;;;;;;;-1.19;100.00;101207.66;2090644;28;20025;-69
2021/11/25 00:46:25;;;;;;;15.50;10.00;;;;;;;-1.22;100.00;101197.41;2090582;28;20465;-69
2021/11/25 00:47:25;;;;;;;16.20;10.17;;;;;;;-1.22;100.00;101201.66;2090632;28;20287;-68
2021/11/25 00:48:25;;;;;;;14.13;9.47;;;;;;;-1.21;100.00;101203.34;2089866;28;20509;-70
2021/11/25 00:49:26;;;;;;;12.73;9.23;;;;;;;-1.22;100.00;101201.66;2081656;28;20037;-69
2021/11/25 00:50:26;;;;;;;15.13;9.60;;;;;;;-1.23;100.00;101205.91;2090034;28;20036;-69
2021/11/25 00:51:27;;;;;;;14.33;10.17;;;;;;;-1.22;100.00;101201.66;2090507;28;20120;-69
2021/11/25 00:52:27;;;;;;;16.83;10.50;;;;;;;-1.20;100.00;101210.22;2090553;28;20067;-69
2021/11/25 00:53:27;;;;;;;18.40;11.67;;;;;;;-1.16;100.00;101206.84;2089858;28;20028;-69
2021/11/25 00:54:27;;;;;;;16.87;10.50;;;;;;;-1.14;100.00;101210.28;2089729;28;20049;-68
2021/11/25 00:55:28;;;;;;;17.03;10.10;;;;;;;-1.12;100.00;101208.63;2089942;28;20029;-69
2021/11/25 00:56:28;;;;;;;19.30;11.07;;;;;;;-1.11;100.00;101209.44;2090438;28;20032;-70
2021/11/25 00:57:28;;;;;;;17.10;10.77;;;;;;;-1.13;100.00;101204.31;2090571;28;20434;-70
2021/11/25 00:58:29;;;;;;;15.17;10.43;;;;;;;-1.11;100.00;101205.19;2089803;28;20092;-70
2021/11/25 00:59:29;;;;;;;17.57;11.17;;;;;;;-1.07;100.00;101212.06;2089885;28;20028;-70
2021/11/25 01:00:29;;;;;;;17.67;10.60;;;;;;;-1.08;100.00;101200.13;2089691;28;20036;-69
2021/11/25 01:01:29;;;;;;;16.17;10.03;;;;;;;-1.09;100.00;101203.50;2089886;28;20040;-69
2021/11/25 01:02:30;;;;;;;17.77;10.23;;;;;;;-1.08;100.00;101204.38;2090478;28;20028;-69
2021/11/25 01:03:30;;;;;;;18.40;11.57;;;;;;;-1.11;100.00;101205.19;2090480;28;20033;-70
2021/11/25 01:04:30;;;;;;;15.93;10.20;;;;;;;-1.13;100.00;101201.75;2089884;28;20033;-70
2021/11/25 01:05:31;;;;;;;17.90;11.13;;;;;;;-1.13;100.00;101199.19;2089885;28;20041;-70
2021/11/25 01:06:31;;;;;;;17.00;11.13;;;;;;;-1.13;100.00;101196.63;2089748;28;20036;-70
2021/11/25 01:07:32;;;;;;;18.73;10.27;;;;;;;-1.13;100.00;101199.19;2089880;28;20077;-70
2021/11/25 01:08:33;;;;;;;14.43;10.67;;;;;;;-1.13;100.00;101195.78;2089850;28;20033;-70
2021/11/25 01:09:33;;;;;;;17.00;10.45;;;;;;;-1.10;100.00;101206.91;2089991;28;20032;-69
2021/11/25 01:10:34;;;;;;;17.60;11.00;;;;;;;-1.08;100.00;101201.81;2090500;28;20096;-69
2021/11/25 01:11:34;;;;;;;18.00;10.77;;;;;;;-1.09;100.00;101203.50;2090461;28;20028;-68
2021/11/25 01:12:35;;;;;;;16.60;9.60;;;;;;;-1.10;100.00;101212.03;2089714;28;20139;-70
2021/11/25 01:13:36;;;;;;;18.25;10.95;;;;;;;-1.11;100.00;101209.44;2081500;28;20044;-69
2021/11/25 01:14:37;;;;;;;15.73;9.85;;;;;;;-1.14;100.00;101205.16;2081345;28;20024;-70
2021/11/25 01:15:38;;;;;;;16.70;10.70;;;;;;;-1.17;100.00;101200.00;2089857;28;20029;-69
2021/11/25 01:16:39;;;;;;;;;;;;;;;-1.19;100.00;101204.25;2090794;28;20021;-69
2021/11/25 01:17:40;;;;;;;16.33;9.98;;;;;;;-1.23;100.00;101203.34;2090305;28;20342;-70
2021/11/25 01:18:40;;;;;;;14.45;9.50;;;;;;;-1.23;100.00;101195.66;2090393;28;20103;-71
2021/11/25 01:19:41;;;;;;;16.47;10.53;;;;;;;-1.22;100.00;101196.53;2090447;28;20017;-69
2021/11/25 01:20:44;;;;;;;18.57;10.30;;;;;;;-1.22;100.00;101206.75;2090724;28;20070;-70
2021/11/25 01:21:44;;;;;;;15.32;10.80;;;;;;;-1.22;100.00;101217.88;2090782;28;20029;-70
2021/11/25 01:22:45;;;;;;;17.60;11.23;;;;;;;-1.23;100.00;101202.50;2090242;28;20541;-70
2021/11/25 01:23:45;;;;;;;15.82;10.25;;;;;;;-1.21;100.00;101198.22;2090162;28;20037;-70
2021/11/25 01:24:46;;;;;;;17.60;9.93;;;;;;;-1.20;100.00;101199.97;2081932;28;20116;-71
2021/11/25 01:25:48;;;;;;;17.67;11.10;;;;;;;-1.20;100.00;101199.97;2082239;28;20103;-70
2021/11/25 01:26:48;;;;;;;13.32;9.75;;;;;;;-1.23;100.00;101192.25;2090539;28;20021;-71
2021/11/25 01:27:48;;;;;;;15.73;10.20;;;;;;;-1.24;100.00;101193.06;2090786;28;20118;-69
2021/11/25 01:28:49;;;;;;;15.93;10.17;;;;;;;-1.25;100.00;101194.78;2054844;28;1038820;-70
2021/11/25 01:29:49;;;;;;;13.82;9.75;;;;;;;-1.24;100.00;101198.19;2091202;28;20060;-69
2021/11/25 01:30:53;;;;;;;14.27;9.47;;;;;;;-1.28;100.00;101191.31;2090958;28;20163;-70
2021/11/25 01:31:54;;;;;;;13.00;9.10;;;;;;;-1.32;100.00;101198.97;2090499;28;20055;-70
2021/11/25 01:32:55;;;;;;;17.40;9.93;;;;;;;-1.36;100.00;101186.97;2090336;28;20029;-69
2021/11/25 01:33:55;;;;;;;13.55;8.50;;;;;;;-1.35;100.00;101190.38;2090887;28;20033;-72
2021/11/25 01:34:55;;;;;;;15.50;10.17;;;;;;;-1.36;100.00;101191.22;2090641;28;20039;-70
2021/11/25 01:35:57;;;;;;;14.80;9.27;;;;;;;-1.39;100.00;101186.94;2090586;28;20021;-70
2021/11/25 01:36:58;;;;;;;14.20;9.80;;;;;;;-1.39;100.00;101184.38;2090581;28;20037;-70
2021/11/25 01:37:58;;;;;;;15.30;10.17;;;;;;;-1.40;100.00;101186.91;2090556;28;20033;-69
2021/11/25 01:38:58;;;;;;;16.90;10.07;;;;;;;-1.43;100.00;101192.84;2090568;28;20486;-69
2021/11/25 01:39:59;;;;;;;14.57;10.23;;;;;;;-1.38;100.00;101195.47;2090012;28;20036;-70
2021/11/25 01:40:59;;;;;;;14.20;9.93;;;;;;;-1.38;100.00;101193.78;2089936;28;20542;-69
2021/11/25 01:41:59;;;;;;;16.50;10.30;;;;;;;-1.39;100.00;101194.63;2090586;28;20105;-70
2021/11/25 01:43:01;;;;;;;14.50;9.97;;;;;;;-1.44;100.00;101189.44;2089805;28;20048;-70
2021/11/25 01:44:01;;;;;;;;;;;;;;;-1.45;100.00;101189.41;2090229;28;20466;-70
2021/11/25 01:45:03;;;;;;;12.32;8.32;;;;;;;-1.44;100.00;101192.00;2089856;28;19940;-70
2021/11/25 01:46:11;;;;;;;13.82;9.35;;;;;;;-1.44;100.00;101191.13;2081704;28;20029;-70
2021/11/25 01:47:11;;;;;;;14.05;9.63;;;;;;;-1.49;100.00;101185.09;2082657;28;20410;-70
2021/11/25 01:48:12;;;;;;;15.90;10.07;;;;;;;-1.51;100.00;101181.66;2089904;28;20028;-70
2021/11/25 01:49:12;;;;;;;15.37;9.60;;;;;;;-1.57;100.00;101175.59;2090543;28;20021;-69
2021/11/25 01:50:15;;;;;;;18.67;10.63;;;;;;;-1.62;100.00;101177.25;2090380;28;20373;-70
2021/11/25 01:51:17;;;;;;;16.30;10.07;;;;;;;-1.62;100.00;101173.81;2090540;28;20041;-70
2021/11/25 01:52:17;;;;;;;18.83;10.40;;;;;;;-1.63;100.00;101183.22;2089771;28;20037;-69
2021/11/25 01:53:19;;;;;;;15.63;9.97;;;;;;;-1.63;100.00;101185.78;2081546;28;20108;-70
2021/11/25 01:54:20;;;;;;;12.52;9.35;;;;;;;-1.65;100.00;101182.31;2089243;28;20098;-70
2021/11/25 01:55:23;;;;;;;15.63;9.80;;;;;;;-1.66;100.00;101180.59;2090186;28;20033;-70
2021/11/25 01:56:23;;;;;;;12.75;9.25;;;;;;;-1.66;100.00;101179.72;2090285;28;20475;-71
2021/11/25 01:57:24;;;;;;;13.18;9.15;;;;;;;-1.67;100.00;101184.00;2090494;28;20100;-70
2021/11/25 01:58:24;;;;;;;15.53;9.47;;;;;;;-1.69;100.00;101185.66;2090506;28;20069;-70
2021/11/25 01:59:25;;;;;;;13.97;9.53;;;;;;;-1.71;100.00;101177.13;2090423;28;20311;-70
2021/11/25 02:00:37;;;;;;;15.37;9.67;;;;;;;-1.70;100.00;101181.41;2090455;28;20502;-70
2021/11/25 02:01:38;;;;;;;15.32;9.77;;;;;;;-1.72;100.00;101181.38;2090397;28;20032;-70
2021/11/25 02:02:39;;;;;;;17.10;10.33;;;;;;;-1.72;100.00;101175.38;2090327;28;20057;-71
2021/11/25 02:03:39;;;;;;;15.02;9.95;;;;;;;-1.72;100.00;101176.25;2090359;28;20032;-70
2021/11/25 02:04:40;;;;;;;15.95;9.23;;;;;;;-1.74;100.00;101172.81;2090382;28;20021;-70
2021/11/25 02:05:40;;;;;;;16.47;10.53;;;;;;;-1.75;100.00;101165.97;2089707;28;20048;-70
2021/11/25 02:06:41;;;;;;;15.60;9.77;;;;;;;-1.72;100.00;101162.59;2089841;28;20078;-70
2021/11/25 02:07:42;;;;;;;14.80;10.15;;;;;;;-1.72;100.00;101155.78;2090376;28;20021;-70
2021/11/25 02:08:43;;;;;;;14.93;9.90;;;;;;;-1.74;100.00;101157.44;2090482;28;20044;-70
2021/11/25 02:09:44;;;;;;;;;;;;;;;-1.75;100.00;101155.72;2090834;28;20470;-70
2021/11/25 02:10:47;;;;;;;17.65;9.73;;;;;;;-1.71;100.00;101164.34;2089725;28;20004;-70
2021/11/25 02:11:47;;;;;;;19.45;10.50;;;;;;;-1.71;100.00;101164.34;2081696;28;20021;-70
2021/11/25 02:12:48;;;;;;;14.13;9.50;;;;;;;-1.70;100.00;101173.72;2089684;28;20494;-71
2021/11/25 02:13:48;;;;;;;14.87;9.97;;;;;;;-1.71;100.00;101167.72;2090347;28;20108;-70
2021/11/25 02:14:49;;;;;;;16.40;10.47;;;;;;;-1.69;100.00;101165.19;2089483;28;20339;-71
2021/11/25 02:15:50;;;;;;;13.25;9.63;;;;;;;-1.71;100.00;101170.28;2089742;28;20531;-70
2021/11/25 02:16:50;;;;;;;16.60;9.73;;;;;;;-1.71;100.00;101166.91;2089648;28;20021;-71
2021/11/25 02:17:51;;;;;;;13.77;9.53;;;;;;;-1.72;100.00;101162.59;2081378;28;20486;-71
2021/11/25 02:18:51;;;;;;;15.82;10.02;;;;;;;-1.72;100.00;101160.91;2089784;28;20021;-71
2021/11/25 02:19:52;;;;;;;13.93;10.57;;;;;;;-1.72;100.00;101165.16;2090252;28;20547;-71
2021/11/25 02:20:54;;;;;;;;;;;;;;;-1.74;100.00;101169.41;2089977;28;20029;-70
2021/11/25 02:21:55;;;;;;;16.58;9.15;;;;;;;-1.76;100.00;101159.13;2081523;28;19909;-71
2021/11/25 02:22:55;;;;;;;13.95;9.00;;;;;;;-1.79;100.00;101163.38;2089661;28;20490;-70
2021/11/25 02:23:56;;;;;;;15.80;10.43;;;;;;;-1.81;100.00;101160.78;2090208;28;20048;-70
2021/11/25 02:24:56;;;;;;;11.52;8.90;;;;;;;-1.82;100.00;101159.03;2089584;28;20048;-70
2021/11/25 02:25:57;;;;;;;16.67;9.73;;;;;;;-1.83;100.00;101153.09;2089759;28;20032;-70
2021/11/25 02:26:57;;;;;;;14.68;9.55;;;;;;;-1.84;100.00;101156.47;2089418;28;20029;-70
2021/11/25 02:27:58;;;;;;;13.83;8.93;;;;;;;-1.82;100.00;101154.81;2089633;28;20025;-69
2021/11/25 02:28:58;;;;;;;15.67;9.70;;;;;;;-1.82;100.00;101151.38;2089451;28;20453;-71
2021/11/25 02:29:59;;;;;;;16.60;9.67;;;;;;;-1.81;100.00;101159.06;2089573;28;20283;-71
2021/11/25 02:31:00;;;;;;;15.23;10.30;;;;;;;-1.82;100.00;101152.25;2081456;28;20025;-71
2021/11/25 02:32:00;;;;;;;16.73;9.90;;;;;;;-1.85;100.00;101154.75;2081363;28;20486;-71
2021/11/25 02:33:01;;;;;;;16.10;9.67;;;;;;;-1.88;100.00;101139.34;2089656;28;20029;-71
2021/11/25 02:34:01;;;;;;;17.02;10.50;;;;;;;-1.90;100.00;101140.16;2089570;28;20033;-71
2021/11/25 02:35:04;;;;;;;16.57;11.20;;;;;;;-1.90;100.00;101141.03;2089583;28;20049;-71
2021/11/25 02:36:04;;;;;;;15.80;9.77;;;;;;;-1.91;100.00;101135.91;2090246;28;20060;-71
2021/11/25 02:37:05;;;;;;;15.93;11.32;;;;;;;-1.94;100.00;101136.72;2089548;28;20028;-71
2021/11/25 02:38:06;;;;;;;19.33;10.10;;;;;;;-1.95;100.00;101138.41;2089610;28;20028;-71
2021/11/25 02:39:07;;;;;;;12.88;8.88;;;;;;;-1.94;100.00;101134.16;2090083;28;20063;-71
2021/11/25 02:40:14;;;;;;;15.43;10.90;;;;;;;-1.94;100.00;101129.03;2090196;28;20083;-70
2021/11/25 02:41:15;;;;;;;15.95;10.82;;;;;;;-1.92;100.00;101136.75;2090206;28;20031;-70
2021/11/25 02:42:16;;;;;;;21.77;11.03;;;;;;;-1.89;100.00;101137.63;2089455;28;20227;-70
2021/11/25 02:43:18;;;;;;;;;;;;;;;-1.87;100.00;101128.28;2089922;28;20485;-70
2021/11/25 02:44:18;;;;;;;15.02;10.02;;;;;;;-1.85;100.00;101134.28;2089393;28;19908;-70
2021/11/25 02:45:20;;;;;;;15.53;10.00;;;;;;;-1.83;100.00;101126.63;2089412;28;20028;-70
2021/11/25 02:46:20;;;;;;;14.98;10.43;;;;;;;-1.84;100.00;101125.75;2081332;28;20017;-71
2021/11/25 02:47:20;;;;;;;16.30;10.03;;;;;;;-1.87;100.00;101125.75;2081208;28;20057;-71
2021/11/25 02:48:39;;;;;;;15.23;10.33;;;;;;;-1.89;100.00;101122.28;2089484;28;20112;-71
2021/11/25 02:49:40;;;;;;;15.77;10.40;;;;;;;-1.89;100.00;101124.84;2090126;28;20059;-71
2021/11/25 02:50:41;;;;;;;;;;;;;;;-1.86;100.00;101129.13;2090462;28;20452;-70
2021/11/25 02:51:42;;;;;;;17.25;10.52;;;;;;;-1.85;100.00;101128.31;2089337;28;19908;-70
2021/11/25 02:52:43;;;;;;;16.73;9.57;;;;;;;-1.86;100.00;101119.78;2089358;28;20051;-70
2021/11/25 02:53:43;;;;;;;14.57;9.25;;;;;;;-1.87;100.00;101129.97;2089442;28;20324;-70
2021/11/25 02:54:44;;;;;;;16.27;9.55;;;;;;;-1.88;100.00;101131.66;2089305;28;20159;-69
2021/11/25 02:55:44;;;;;;;16.07;10.07;;;;;;;-1.85;100.00;101129.16;2081120;28;20395;-70
2021/11/25 02:56:44;;;;;;;17.83;11.33;;;;;;;-1.85;100.00;101124.03;2081062;28;20102;-70
2021/11/25 02:57:46;;;;;;;17.77;10.60;;;;;;;-1.86;100.00;101122.34;2089345;28;20033;-71
2021/11/25 02:58:47;;;;;;;15.52;11.40;;;;;;;-1.87;100.00;101120.63;2090107;28;20363;-70
2021/11/25 02:59:47;;;;;;;16.85;11.27;;;;;;;-1.79;100.00;101114.75;2090011;28;20410;-70
2021/11/25 03:00:49;;;;;;;15.17;11.00;;;;;;;-1.72;100.00;101114.84;2090057;28;20104;-70
2021/11/25 03:01:49;;;;;;;18.45;12.30;;;;;;;-1.66;100.00;101116.63;2089987;28;20021;-71
2021/11/25 03:02:54;;;;;;;18.80;11.53;;;;;;;-1.64;100.00;101111.53;2089927;28;20048;-70
2021/11/25 03:03:56;;;;;;;14.85;10.40;;;;;;;-1.67;100.00;101122.59;2089977;28;20033;-71
2021/11/25 03:04:57;;;;;;;20.27;9.93;;;;;;;-1.73;100.00;101118.25;2089942;28;20055;-70
2021/11/25 03:05:57;;;;;;;18.57;10.07;;;;;;;-1.74;100.00;101105.44;2089817;28;20032;-70
2021/11/25 03:06:57;;;;;;;14.67;11.30;;;;;;;-1.72;100.00;101104.59;2089947;28;20025;-70
2021/11/25 03:08:05;;;;;;;17.17;10.90;;;;;;;-1.69;100.00;101109.75;2089954;28;20029;-70
2021/11/25 03:09:06;;;;;;;15.52;10.20;;;;;;;-1.71;100.00;101105.47;2090071;28;20033;-70
2021/11/25 03:10:07;;;;;;;;;;;;;;;-1.72;100.00;101107.16;2089640;28;20024;-71
2021/11/25 03:11:10;;;;;;;18.75;10.75;;;;;;;-1.72;100.00;101107.16;2080927;28;20325;-71
2021/11/25 03:12:10;;;;;;;16.67;11.27;;;;;;;-1.72;100.00;101101.16;2081340;28;20112;-70
2021/11/25 03:13:15;;;;;;;16.83;10.40;;;;;;;-1.74;100.00;101095.19;2089294;28;20442;-71
2021/11/25 03:14:15;;;;;;;15.55;11.57;;;;;;;-1.76;100.00;101101.97;2089247;28;20470;-70
2021/11/25 03:15:16;;;;;;;16.27;10.23;;;;;;;-1.77;100.00;101092.59;2089169;28;20036;-71
2021/11/25 03:16:17;;;;;;;17.07;10.27;;;;;;;-1.79;100.00;101090.00;2081013;28;20029;-71
2021/11/25 03:17:17;;;;;;;15.15;9.23;;;;;;;-1.84;100.00;101084.81;2089173;28;20090;-71
2021/11/25 03:18:18;;;;;;;18.57;10.17;;;;;;;-1.88;100.00;101079.66;2089261;28;20068;-71
2021/11/25 03:19:18;;;;;;;21.80;10.70;;;;;;;-1.90;100.00;101089.00;2089403;28;20028;-72
2021/11/25 03:20:21;;;;;;;17.97;10.10;;;;;;;-1.93;100.00;101084.72;2089911;28;20500;-71
2021/11/25 03:21:23;;;;;;;16.98;9.85;;;;;;;-1.94;100.00;101090.66;2089908;28;20025;-72
2021/11/25 03:22:23;;;;;;;13.95;9.18;;;;;;;-1.92;100.00;101088.13;2089286;28;20033;-71
2021/11/25 03:23:26;;;;;;;16.07;10.80;;;;;;;-1.91;100.00;101093.28;2089308;28;20033;-71
2021/11/25 03:24:27;;;;;;;16.13;10.00;;;;;;;-1.90;100.00;101087.31;2089883;28;20021;-71
2021/11/25 03:25:27;;;;;;;15.63;9.97;;;;;;;-1.90;100.00;101079.63;2090012;28;20116;-71
2021/11/25 03:26:28;;;;;;;15.10;9.53;;;;;;;-1.90;100.00;101089.88;2089862;28;20035;-71
2021/11/25 03:27:28;;;;;;;17.52;9.63;;;;;;;-1.93;100.00;101094.94;2089162;28;20492;-71
2021/11/25 03:28:28;;;;;;;19.70;10.83;;;;;;;-1.96;100.00;101085.53;2089099;28;20457;-71
2021/11/25 03:29:29;;;;;;;14.10;9.37;;;;;;;-1.96;100.00;101094.88;2089878;28;20021;-71
2021/11/25 03:30:31;;;;;;;12.70;8.07;;;;;;;-1.97;100.00;101081.25;2089133;28;20041;-72
2021/11/25 03:31:33;;;;;;;15.10;10.48;;;;;;;-1.98;100.00;101091.47;2089253;28;20068;-71
2021/11/25 03:32:33;;;;;;;16.70;10.50;;;;;;;-1.98;100.00;101086.34;2089856;28;20029;-71
2021/11/25 03:33:33;;;;;;;13.70;10.10;;;;;;;-1.97;100.00;101088.06;2090005;28;20024;-71
2021/11/25 03:34:34;;;;;;;19.43;10.43;;;;;;;-1.96;100.00;101079.53;2089852;28;20056;-72
2021/11/25 03:35:36;;;;;;;14.87;10.17;;;;;;;-1.96;100.00;101082.09;2089311;28;20283;-70
2021/11/25 03:36:36;;;;;;;14.15;9.15;;;;;;;-1.95;100.00;101083.84;2089393;28;20080;-70
2021/11/25 03:37:37;;;;;;;14.80;8.93;;;;;;;-1.93;100.00;101077.03;2090217;28;20074;-71
2021/11/25 03:38:39;;;;;;;14.45;10.25;;;;;;;-1.89;100.00;101080.50;2081383;28;20037;-69
2021/11/25 03:39:39;;;;;;;16.00;10.43;;;;;;;-1.87;100.00;101077.13;2081231;28;20475;-71
2021/11/25 03:40:39;;;;;;;18.77;9.43;;;;;;;-1.86;100.00;101076.28;2089837;28;20017;-70
2021/11/25 03:41:40;;;;;;;15.77;10.10;;;;;;;-1.85;100.00;101083.09;2090225;28;20052;-70
2021/11/25 03:42:40;;;;;;;13.90;9.43;;;;;;;-1.86;100.00;101081.41;2090544;28;20021;-71
2021/11/25 03:43:41;;;;;;;13.33;9.47;;;;;;;-1.88;100.00;101064.31;2089605;28;20032;-70
2021/11/25 03:44:44;;;;;;;16.50;10.05;;;;;;;-1.87;100.00;101073.69;2089600;28;20044;-70
2021/11/25 03:45:44;;;;;;;13.77;8.55;;;;;;;-1.86;100.00;101071.16;2089507;28;20187;-70
2021/11/25 03:46:45;;;;;;;15.27;9.47;;;;;;;-1.86;100.00;101073.72;2090114;28;20437;-70
2021/11/25 03:47:45;;;;;;;14.73;10.10;;;;;;;-1.87;100.00;101068.56;2089803;28;20033;-70
2021/11/25 03:48:45;;;;;;;14.73;10.57;;;;;;;-1.88;100.00;101070.25;2089903;28;20036;-71
2021/11/25 03:49:46;;;;;;;16.53;10.90;;;;;;;-1.88;100.00;101072.81;2089863;28;20021;-70
2021/11/25 03:50:46;;;;;;;16.20;10.10;;;;;;;-1.87;100.00;101061.78;2089789;28;20044;-72
2021/11/25 03:51:46;;;;;;;16.43;10.50;;;;;;;-1.86;100.00;101055.81;2089655;28;20020;-70
2021/11/25 03:52:47;;;;;;;17.93;10.77;;;;;;;-1.81;100.00;101064.41;2089057;28;20024;-70
2021/11/25 03:53:49;;;;;;;15.10;9.70;;;;;;;-1.79;100.00;101066.13;2089261;28;20098;-71
2021/11/25 03:54:54;;;;;;;16.55;10.70;;;;;;;-1.81;100.00;101069.50;2089807;28;20386;-70
2021/11/25 03:55:54;;;;;;;16.05;10.55;;;;;;;-1.79;100.00;101066.13;2089056;28;20021;-70
2021/11/25 03:56:55;;;;;;;18.40;9.67;;;;;;;-1.79;100.00;101055.91;2089234;28;20048;-70
2021/11/25 03:57:56;;;;;;;13.27;9.43;;;;;;;-1.78;100.00;101057.59;2089076;28;20723;-71
2021/11/25 03:58:56;;;;;;;15.40;10.80;;;;;;;-1.79;100.00;101055.91;2080909;28;20056;-71
2021/11/25 03:59:56;;;;;;;15.27;10.47;;;;;;;-1.77;100.00;101059.31;2089199;28;20075;-70
2021/11/25 04:00:57;;;;;;;17.92;10.90;;;;;;;-1.75;100.00;101053.38;2089812;28;20057;-71
2021/11/25 04:01:58;;;;;;;16.55;10.13;;;;;;;-1.73;100.00;101059.38;2089786;28;20490;-70
2021/11/25 04:03:01;;;;;;;18.77;11.17;;;;;;;-1.68;100.00;101061.97;2089808;28;20037;-71
2021/11/25 04:04:01;;;;;;;17.85;11.00;;;;;;;-1.66;100.00;101062.00;2089523;28;20025;-70
2021/11/25 04:05:01;;;;;;;14.20;10.10;;;;;;;-1.60;100.00;101062.94;2089045;28;20024;-71
2021/11/25 04:06:02;;;;;;;16.70;10.95;;;;;;;-1.53;100.00;101073.25;2089186;28;20024;-71
2021/11/25 04:07:03;;;;;;;17.73;11.60;;;;;;;-1.49;100.00;101055.38;2089098;28;20516;-70
2021/11/25 04:08:03;;;;;;;18.85;10.20;;;;;;;-1.45;100.00;101061.38;2089048;28;20099;-70
2021/11/25 04:09:05;;;;;;;16.17;11.02;;;;;;;-1.44;100.00;101063.97;2089148;28;20029;-70
2021/11/25 04:10:07;;;;;;;18.35;11.13;;;;;;;-1.40;100.00;101057.19;2089030;28;20029;-70
2021/11/25 04:11:07;;;;;;;15.25;10.45;;;;;;;-1.36;100.00;101051.25;2081005;28;20041;-70
2021/11/25 04:12:08;;;;;;;14.63;10.23;;;;;;;-1.30;100.00;101048.75;2080813;28;20021;-70
2021/11/25 04:13:09;;;;;;;15.23;10.30;;;;;;;-1.25;100.00;101058.19;2089129;28;20028;-70
2021/11/25 04:14:09;;;;;;;16.80;10.90;;;;;;;-1.25;100.00;101059.03;2089752;28;20024;-69
2021/11/25 04:15:11;;;;;;;16.97;11.37;;;;;;;-1.23;100.00;101056.50;2089016;28;20068;-71
2021/11/25 04:16:11;;;;;;;15.15;10.20;;;;;;;-1.21;100.00;101049.69;2089042;28;20490;-71
2021/11/25 04:17:12;;;;;;;16.03;10.90;;;;;;;-1.19;100.00;101048.84;2089762;28;20044;-71
2021/11/25 04:18:13;;;;;;;16.58;10.82;;;;;;;-1.16;100.00;101042.91;2089883;28;20025;-71
2021/11/25 04:19:13;;;;;;;16.13;10.13;;;;;;;-1.13;100.00;101048.03;2090621;28;20033;-70
2021/11/25 04:20:14;;;;;;;16.80;10.57;;;;;;;-1.14;100.00;101046.34;2090716;28;20033;-71
2021/11/25 04:21:14;;;;;;;16.55;11.43;;;;;;;-1.15;100.00;101042.06;2091205;28;20032;-70
2021/11/25 04:22:17;;;;;;;15.50;9.83;;;;;;;-1.13;100.00;101042.09;2091261;28;20112;-72
2021/11/25 04:23:17;;;;;;;17.98;10.85;;;;;;;-1.09;100.00;101033.59;2090572;28;20047;-72
2021/11/25 04:24:18;;;;;;;19.77;10.27;;;;;;;-1.04;100.00;101032.78;2090603;28;20514;-71
2021/11/25 04:25:19;;;;;;;17.13;11.73;;;;;;;-0.99;100.00;101031.97;2091392;28;20071;-71
2021/11/25 04:26:19;;;;;;;16.10;10.48;;;;;;;-0.94;100.00;101032.84;2091237;28;20494;-71
2021/11/25 04:27:19;;;;;;;18.13;10.93;;;;;;;-0.94;100.00;101028.59;2091190;28;20065;-71
2021/11/25 04:28:20;;;;;;;22.35;12.70;;;;;;;-0.93;100.00;101032.00;2090328;28;20090;-70
2021/11/25 04:29:21;;;;;;;18.30;11.67;;;;;;;-0.88;100.00;101038.03;2090627;28;20435;-71
2021/11/25 04:30:25;;;;;;;16.67;10.77;;;;;;;-0.86;100.00;101031.22;2091114;28;20051;-71
2021/11/25 04:35:34;;;;;;;18.65;10.90;;;;;;;-0.69;100.00;101044.16;2091226;28;20481;-70
2021/11/25 04:36:34;;;;;;;21.27;11.98;;;;;;;-0.64;100.00;101041.63;2090458;28;20016;-71
2021/11/25 04:37:35;;;;;;;17.80;11.80;;;;;;;-0.63;100.00;101038.22;2082150;28;20037;-71
2021/11/25 04:38:35;;;;;;;17.87;11.50;;;;;;;-0.62;100.00;101033.97;2090477;28;20413;-70
2021/11/25 04:39:35;;;;;;;20.87;11.70;;;;;;;-0.59;100.00;101039.94;2090407;28;20017;-71
2021/11/25 04:40:50;;;;;;;20.63;12.63;;;;;;;-0.57;100.00;101043.41;2082132;28;20076;-70